Tiempo atmosférico en la estación meteorológica de Aguilar de la Frontera, Córdoba (305 m.)



Fecha
DESCASC
Temp. máxima en grados centígrados (hora)
DESCASC
Temp. mínima en grados centígrados (hora)
DESCASC
Temp. media en grados centígrados
DESCASC
Racha de viento máxima en m/sg (hora)
DESCASC
Velocidad máxima media en intervalos de 10 minutos(hora)
DESCASC
Precipitaciones diarias en mm
DESCASC
Precipitaciones de 00:00 a 06:00 en mm
DESCASC
Precipitaciones de 06:00 a 12:00 en mm
DESCASC
Precipitaciones de 12:00 a 18:00 en mm
DESCASC
Precipitaciones de 18:00 a 24:00 en mm
DESCASC
18-08-2019 36.7 (17:10) 20.3 (07:50) 28.5 7.5 (18:20) 5 (18:50) 0 0 0 0 0
17-08-2019 40.3 (17:10) 19.8 (06:50) 30 6.11 (21:10) 4.17 (21:10) 0 0 0 0 0
16-08-2019 39 (17:30) 21.6 (05:30) 30.3 5.83 (22:00) 4.17 (06:40) 0 0 0 0 0
15-08-2019 38.4 (17:40) 20.2 (00:00) 29.3 5.83 (22:00) 4.17 (03:10) 0 0 0 0 0
14-08-2019 36.8 (18:30) 20.2 (00:00) 28.5 6.67 (03:10) 4.17 (23:59) 0 0 0 0 0
13-08-2019 35.4 (17:10) 17.3 (00:00) 26.4 8.33 (12:00) 4.44 (23:20) 0 0 0 0 0
12-08-2019 33.9 (18:30) 14.8 (00:00) 24.4 7.22 (13:20) 4.17 (11:10) 0 0 0 0 0
11-08-2019 33 (17:50) 16.6 (00:00) 24.8 7.22 (19:00) 4.72 (21:10) 0 0 0 0 0
10-08-2019 35.4 (18:40) 19.5 (00:00) 27.5 7.5 (21:00) 5.28 (20:50) 0 0 0 0 0
09-08-2019 35.2 (18:10) 18.4 (00:00) 26.8 7.22 (00:30) 5 (19:40) 0 0 0 0 0
08-08-2019 37.5 (18:10) 17.9 (00:00) 27.7 5.56 (20:20) 4.17 (20:10) 0 0 0 0 0
07-08-2019 34.8 (18:50) 18.1 (00:00) 26.4 6.11 (13:50) 3.61 (15:00) 0 0 0 0 0
06-08-2019 37.4 (17:40) 17.8 (00:00) 27.6 6.11 (20:30) 4.44 (20:30) 0 0 0 0 0
05-08-2019 37.5 (17:50) 20.1 (00:00) 28.8 7.5 (21:50) 5 (20:40) 0 0 0 0 0
04-08-2019 37 (18:10) 18.9 (00:00) 27.9 6.11 (20:30) 4.44 (20:50) 0 0 0 0 0
03-08-2019 36.5 (17:30) 18.6 (00:00) 27.6 8.06 (20:50) 5.83 (20:50) 0 0 0 0 0
02-08-2019 37.5 (17:50) 17.8 (00:00) 27.6 7.5 (22:10) 4.44 (22:10) 0 0 0 0 0
01-08-2019 35.1 (17:50) 20.4 (00:00) 27.7 8.06 (00:10) 5.28 (00:10) 0 0 0 0 0
31-07-2019 35 (15:40) 20.4 (00:00) 27.7 12.22 (22:30) 7.78 (21:50) 0 0 0 0 0
30-07-2019 36.7 (18:10) 16.3 (00:00) 26.5 5.28 (13:40) 3.33 (20:20) 0 0 0 0 0
29-07-2019 34.9 (18:10) 16.6 (00:00) 25.8 6.11 (00:50) 4.17 (15:20) 0 0 0 0 0
28-07-2019 32 (19:00) 19 (00:00) 25.5 8.06 (22:50) 5.56 (22:50) 0 0 0 0 0
27-07-2019 29.1 (16:40) 17 (00:00) 23.1 10.83 (18:00) 7.22 (17:40) 0 0 0 0 0
26-07-2019 32.2 (17:50) 19 (00:00) 25.6 10.83 (20:10) 6.67 (20:10) 0 0 0 0 0
25-07-2019 37.8 (16:40) 20.4 (00:00) 29.1 11.11 (19:30) 6.94 (20:00) 0 0 0 0 0
24-07-2019 38.5 (16:20) 21.2 (00:00) 29.9 7.22 (22:00) 4.17 (22:10) 0 0 0 0 0

Gráficas

Temp. máximas Temp. mínimas Temp. medias Precipitaciones Rachas de viento máximas Velocidades máximas media en intervalos de 10 minutos

Datos horarios

Fecha y hora oficial Temperatura (ºC) Velocidad del viento (km/h) Dirección del viento Racha (km/h) Dirección de racha Precipitación (mm) Presión (hPa) Tendencia (hPa) Humedad (%)
2019-08-22 23:00:00 24.6 20 Sudeste 32 Sudeste 0 -- -- 68
2019-08-22 22:00:00 25.4 19 Sudeste 32 Sur 0 -- -- 64
2019-08-22 21:00:00 26.9 21 Sur 33 Sudeste 0 -- -- 58
2019-08-22 20:00:00 29.4 19 Sur 31 Sur 0 -- -- 51
2019-08-22 19:00:00 31.2 19 Sur 31 Sudoeste 0 -- -- 46
2019-08-22 18:00:00 32.8 15 Sur 33 Sudoeste 0 -- -- 40
2019-08-22 17:00:00 33.9 16 Sudoeste 23 Sudoeste 0 -- -- 39
2019-08-22 16:00:00 33.8 9 Sur 19 Sudoeste 0 -- -- 39
2019-08-22 15:00:00 32.7 9 Oeste 20 Este 0 -- -- 43
2019-08-22 14:00:00 31.7 7 Sudoeste 20 Sur 0 -- -- 46
2019-08-22 13:00:00 31.1 7 Sudeste 18 Sur 0 -- -- 48
2019-08-22 12:00:00 29.4 6 Nordeste 14 Este 0 -- -- 51
2019-08-22 11:00:00 27.9 6 Norte 17 Nordeste 0 -- -- 56
2019-08-22 10:00:00 25.8 9 Este 12 Nordeste 0 -- -- 65
2019-08-22 09:00:00 23.9 0 Calma 9 Sudeste 0 -- -- 74
2019-08-22 08:00:00 21.6 6 Sudeste 12 Sudeste 0 -- -- 82
2019-08-22 07:00:00 21.7 9 Sudeste 18 Sudeste 0 -- -- 82
2019-08-22 06:00:00 22.2 10 Sudeste 16 Sudeste 0 -- -- 79
2019-08-22 05:00:00 22.4 10 Sudeste 21 Sudeste 0 -- -- 77
2019-08-22 04:00:00 23.1 15 Sudeste 26 Sudeste 0 -- -- 76
2019-08-22 03:00:00 23.4 13 Sudeste 22 Sur 0 -- -- 73
2019-08-22 02:00:00 23.8 15 Sudeste 28 Sur 0 -- -- 72
2019-08-22 01:00:00 24.1 17 Sur 29 Sudeste 0 -- -- 69
2019-08-22 00:00:00 24.7 14 Sur 32 Sur 0 -- -- 64
2019-08-21 23:00:00 25.8 18 Sur 31 Sur 0 -- -- 60
2019-08-21 22:00:00 27 19 Sur 31 Sudeste 0 -- -- 55
2019-08-21 21:00:00 28.9 13 Sur 25 Sur 0 -- -- 49
2019-08-21 20:00:00 31.5 14 Sur 23 Sudoeste 0 -- -- 42
2019-08-21 19:00:00 33.4 11 Sur 21 Sur 0 -- -- 37
2019-08-21 18:00:00 33.9 10 Sur 17 Sudoeste 0 -- -- 35
2019-08-21 17:00:00 33.6 13 Sur 21 Sudoeste 0 -- -- 37
2019-08-21 16:00:00 33.9 13 Sur 30 Sudoeste 0 -- -- 36
2019-08-21 15:00:00 33 12 Sur 26 Sudoeste 0 -- -- 39
2019-08-21 14:00:00 33 12 Sur 25 Sudoeste 0 -- -- 37
2019-08-21 13:00:00 31.3 15 Sudoeste 25 Sudoeste 0 -- -- 40
2019-08-21 12:00:00 30.1 10 Sur 21 Sudeste 0 -- -- 48
2019-08-21 11:00:00 29 12 Sudeste 19 Sudeste 0 -- -- 52
2019-08-21 10:00:00 26.9 5 Norte 8 Norte 0 -- -- 57
2019-08-21 09:00:00 24.1 3 Este 6 Sudeste 0 -- -- 65
2019-08-21 08:00:00 20.3 5 Este 6 Este 0 -- -- 78
2019-08-21 07:00:00 20.3 5 Norte 13 Sudeste 0 -- -- 70
2019-08-21 06:00:00 21.9 9 Sudeste 13 Sudeste 0 -- -- 73
2019-08-21 05:00:00 23 4 Sur 13 Sur 0 -- -- 75
2019-08-21 04:00:00 23.3 6 Sur 13 Sur 0 -- -- 73
2019-08-21 03:00:00 22.1 0 Calma 5 Sudeste 0 -- -- 66
2019-08-21 02:00:00 23.2 0 Calma 6 Sur 0 -- -- 65
2019-08-21 01:00:00 23.6 3 Sur 10 Sudoeste 0 -- -- 39
2019-08-21 00:00:00 24.8 8 Sudoeste 14 Sudoeste 0 -- -- 28
2019-08-20 23:00:00 25.9 8 Sudoeste 10 Sudoeste 0 -- -- 27
2019-08-20 22:00:00 26.9 3 Sur 6 Oeste 0 -- -- 25
2019-08-20 21:00:00 30.9 6 Oeste 13 Oeste 0 -- -- 20
2019-08-20 20:00:00 33.5 9 Oeste 14 Oeste 0 -- -- 18
2019-08-20 19:00:00 34.6 7 Oeste 13 Oeste 0 -- -- 16
2019-08-20 18:00:00 34.9 7 Oeste 16 Oeste 0 -- -- 13
2019-08-20 17:00:00 34.6 9 Oeste 15 Oeste 0 -- -- 15
2019-08-20 16:00:00 33.7 9 Oeste 17 Oeste 0 -- -- 16
2019-08-20 15:00:00 33.2 9 Sudoeste 19 Oeste 0 -- -- 20
2019-08-20 14:00:00 31.5 7 Oeste 18 Oeste 0 -- -- 24
2019-08-20 13:00:00 30.2 4 Noroeste 9 Noroeste 0 -- -- 25
2019-08-20 12:00:00 28.4 6 Noroeste 14 Sur 0 -- -- 30
2019-08-20 11:00:00 27.1 4 Este 12 Este 0 -- -- 34
2019-08-20 10:00:00 25.2 4 Sur 8 Sudeste 0 -- -- 38
2019-08-20 09:00:00 22.3 4 Este 7 Este 0 -- -- 47
2019-08-20 08:00:00 16.7 7 Sudeste 11 Sudeste 0 -- -- 59
2019-08-20 07:00:00 17.4 5 Sudeste 6 Sudeste 0 -- -- 57
2019-08-20 06:00:00 17.3 0 Calma 5 Sudeste 0 -- -- 57
2019-08-20 05:00:00 18.3 2 Sudoeste 6 Sudeste 0 -- -- 54
2019-08-20 04:00:00 19.1 0 Calma 8 Sudeste 0 -- -- 49
2019-08-20 03:00:00 20.5 5 Sudeste 8 Sudeste 0 -- -- 46
2019-08-20 02:00:00 21.9 0 Calma 9 Sudeste 0 -- -- 44
2019-08-20 01:00:00 23.5 5 Oeste 13 Oeste 0 -- -- 41
2019-08-20 00:00:00 25.6 6 Sudoeste 21 Sudoeste 0 -- -- 35
2019-08-19 23:00:00 26.2 10 Sudoeste 27 Sudoeste 0 -- -- 37
2019-08-19 22:00:00 28.4 17 Sudoeste 28 Oeste 0 -- -- 39
2019-08-19 21:00:00 30.5 14 Sudoeste 28 Oeste 0 -- -- 35
2019-08-19 20:00:00 33.3 15 Sudoeste 24 Sudoeste 0 -- -- 30
2019-08-19 19:00:00 35 13 Sudoeste 20 Oeste 0 -- -- 26
2019-08-19 18:00:00 35.1 13 Oeste 26 Oeste 0 -- -- 27
2019-08-19 17:00:00 35.3 13 Oeste 22 Noroeste 0 -- -- 28
2019-08-19 16:00:00 34.8 14 Oeste 23 Oeste 0 -- -- 28
2019-08-19 15:00:00 34.3 12 Oeste 19 Oeste 0 -- -- 28
2019-08-19 14:00:00 32.8 11 Oeste 18 Sudoeste 0 -- -- 36
2019-08-19 13:00:00 31.5 8 Oeste 17 Sudoeste 0 -- -- 38
2019-08-19 12:00:00 29.6 7 Sudeste 14 Sur 0 -- -- 42
2019-08-19 11:00:00 27.1 3 Sur 11 Oeste 0 -- -- 49
2019-08-19 10:00:00 24.3 5 Oeste 12 Oeste 0 -- -- 54
2019-08-19 09:00:00 23.3 0 Calma 8 Este 0 -- -- 54
2019-08-19 08:00:00 17.6 5 Sudeste 9 Sudeste 0 -- -- 66
2019-08-19 07:00:00 17.4 6 Este 9 Este 0 -- -- 65
2019-08-19 06:00:00 18 0 Calma 9 Sudeste 0 -- -- 63
2019-08-19 05:00:00 18.8 5 Sudeste 12 Sudeste 0 -- -- 61
2019-08-19 04:00:00 19.5 5 Sudeste 10 Sudeste 0 -- -- 61
2019-08-19 03:00:00 20.2 3 Sudeste 7 Este 0 -- -- 60
2019-08-19 02:00:00 21.5 4 Sudeste 7 Sudeste 0 -- -- 59
2019-08-19 01:00:00 23.5 2 Sudoeste 13 Oeste 0 -- -- 55
2019-08-19 00:00:00 25.1 10 Oeste 21 Oeste 0 -- -- 47
2019-08-18 23:00:00 26.8 11 Oeste 20 Oeste 0 -- -- 39
2019-08-18 22:00:00 28.7 13 Sudoeste 21 Sudoeste 0 -- -- 33
2019-08-18 21:00:00 31.3 12 Sudoeste 27 Sudoeste 0 -- -- 30
2019-08-18 20:00:00 34 15 Sudoeste 24 Oeste 0 -- -- 30
2019-08-18 19:00:00 35.1 16 Sudoeste 27 Oeste 0 -- -- 26
2019-08-18 18:00:00 36 14 Oeste 21 Oeste 0 -- -- 28
2019-08-18 17:00:00 36.4 13 Oeste 21 Oeste 0 -- -- 26
2019-08-18 16:00:00 35.9 14 Oeste 20 Oeste 0 -- -- 26
2019-08-18 15:00:00 35.4 13 Oeste 22 Oeste 0 -- -- 25
2019-08-18 14:00:00 34.1 14 Oeste 21 Oeste 0 -- -- 28
2019-08-18 13:00:00 32.5 12 Oeste 19 Sudoeste 0 -- -- 30
2019-08-18 12:00:00 30.6 10 Oeste 19 Oeste 0 -- -- 33
2019-08-18 11:00:00 29.4 14 Oeste 21 Oeste 0 -- -- 34
2019-08-18 10:00:00 28.6 6 Sur 12 Sudeste 0 -- -- 32
2019-08-18 09:00:00 25.7 2 Sur 14 Sudeste 0 -- -- 43
2019-08-18 08:00:00 20.9 6 Sudeste 12 Este 0 -- -- 49
2019-08-18 07:00:00 22.1 4 Este 14 Sudeste 0 -- -- 44
2019-08-18 06:00:00 22 12 Sudeste 14 Sudeste 0 -- -- 43
2019-08-18 05:00:00 21.6 7 Sudeste 13 Sudeste 0 -- -- 43
2019-08-18 04:00:00 23.5 0 Calma 8 Sudoeste 0 -- -- 41
2019-08-18 03:00:00 24.5 5 Sudeste 12 Sudeste 0 -- -- 40
2019-08-18 02:00:00 25.9 2 Sudeste 10 Sur 0 -- -- 39
2019-08-18 01:00:00 26.7 4 Sur 14 Sur 0 -- -- 38
2019-08-18 00:00:00 29.1 9 Sudoeste 20 Sur 0 -- -- 34
2019-08-17 23:00:00 30.3 9 Sur 17 Sur 0 -- -- 28
2019-08-17 22:00:00 31.8 13 Sur 22 Sur 0 -- -- 24
2019-08-17 21:00:00 34.6 14 Sur 20 Sur 0 -- -- 22
2019-08-17 20:00:00 37.8 8 Sur 10 Sur 0 -- -- 20
2019-08-17 19:00:00 39.3 4 Sur 6 Sur 0 -- -- 18
2019-08-17 18:00:00 40 4 Sudoeste 7 Sudoeste 0 -- -- 18
2019-08-17 17:00:00 40 4 Sudoeste 7 Sudoeste 0 -- -- 18
2019-08-17 16:00:00 39.7 5 Sudeste 7 Oeste 0 -- -- 18
2019-08-17 15:00:00 38.8 6 Oeste 19 Sudoeste 0 -- -- 19
2019-08-17 14:00:00 37.6 5 Sudoeste 10 Oeste 0 -- -- 20
2019-08-17 13:00:00 35.3 6 Noroeste 8 Noroeste 0 -- -- 24
2019-08-17 12:00:00 33.7 5 Noroeste 9 Norte 0 -- -- 26
2019-08-17 11:00:00 32.3 3 Norte 12 Este 0 -- -- 32
2019-08-17 10:00:00 29.5 7 Este 16 Sudeste 0 -- -- 35
2019-08-17 09:00:00 26.3 6 Este 16 Este 0 -- -- 41
2019-08-17 08:00:00 21.9 12 Sudeste 15 Sudeste 0 -- -- 48
2019-08-17 07:00:00 19.8 5 Sudeste 10 Sudeste 0 -- -- 52
2019-08-17 06:00:00 20.4 5 Sudeste 8 Este 0 -- -- 50
2019-08-17 05:00:00 20.7 3 Sudeste 5 Sudeste 0 -- -- 50
2019-08-17 04:00:00 21.9 2 Sudeste 9 Sudeste 0 -- -- 47
2019-08-17 03:00:00 23 7 Sudeste 12 Sudeste 0 -- -- 46
2019-08-17 02:00:00 24.7 3 Sudoeste 8 Sudoeste 0 -- -- 43
2019-08-17 01:00:00 26.4 2 Sudeste 10 Sudoeste 0 -- -- 40
2019-08-17 00:00:00 28 8 Sudoeste 10 Sudoeste 0 -- -- 37
2019-08-16 23:00:00 30 9 Sudoeste 19 Sudoeste 0 -- -- 33
2019-08-16 22:00:00 32 11 Sudoeste 21 Sudoeste 0 -- -- 29
2019-08-16 21:00:00 34 9 Sudoeste 15 Oeste 0 -- -- 27
2019-08-16 20:00:00 36.6 12 Oeste 13 Oeste 0 -- -- 25
2019-08-16 19:00:00 37.8 8 Oeste 9 Oeste 0 -- -- 22
2019-08-16 18:00:00 38.6 6 Oeste 9 Oeste 0 -- -- 21
2019-08-16 17:00:00 38.7 8 Noroeste 9 Noroeste 0 -- -- 22
2019-08-16 16:00:00 38.8 8 Sudoeste 9 Sudoeste 0 -- -- 22
2019-08-16 15:00:00 37.9 8 Sudoeste 12 Oeste 0 -- -- 22
2019-08-16 14:00:00 36.3 8 Sudoeste 12 Oeste 0 -- -- 24
2019-08-16 13:00:00 34.8 5 Sudoeste 14 Sudoeste 0 -- -- 25
2019-08-16 12:00:00 33.2 9 Sudoeste 16 Sudoeste 0 -- -- 27
2019-08-16 11:00:00 31 11 Sur 16 Sur 0 -- -- 30
2019-08-16 10:00:00 27.9 5 Noroeste 19 Sudeste 0 -- -- 39
2019-08-16 09:00:00 25.3 14 Sudeste 21 Sudeste 0 -- -- 42
2019-08-16 08:00:00 22.9 12 Sudeste 20 Sudeste 0 -- -- 45
2019-08-16 07:00:00 22.9 15 Sudeste 20 Sudeste 0 -- -- 44
2019-08-16 06:00:00 21.8 7 Sudeste 11 Sudeste 0 -- -- 48
2019-08-16 05:00:00 22.2 10 Sudeste 13 Sudeste 0 -- -- 46
2019-08-16 04:00:00 22.6 0 Calma 10 Sur 0 -- -- 47
2019-08-16 03:00:00 22.7 5 Sudoeste 8 Sudoeste 0 -- -- 48
2019-08-16 02:00:00 23.9 0 Calma 8 Sudeste 0 -- -- 43
2019-08-16 01:00:00 26.1 3 Este 14 Sudeste 0 -- -- 39
2019-08-16 00:00:00 27.7 2 Nordeste 21 Sur 0 -- -- 37
2019-08-15 23:00:00 29.4 13 Sur 21 Sudeste 0 -- -- 32
2019-08-15 22:00:00 31.1 15 Sur 21 Sur 0 -- -- 29
2019-08-15 21:00:00 34.5 11 Sur 15 Sur 0 -- -- 24
2019-08-15 20:00:00 37.3 8 Sudoeste 10 Sudoeste 0 -- -- 22
2019-08-15 19:00:00 38 5 Noroeste 8 Noroeste 0 -- -- 20
2019-08-15 18:00:00 38.4 5 Noroeste 9 Oeste 0 -- -- 22
2019-08-15 17:00:00 38.1 6 Sur 9 Norte 0 -- -- 22
2019-08-15 16:00:00 37.9 6 Sudoeste 12 Oeste 0 -- -- 24
2019-08-15 15:00:00 36.7 8 Oeste 11 Oeste 0 -- -- 24
2019-08-15 14:00:00 35.9 6 Noroeste 12 Oeste 0 -- -- 25
2019-08-15 13:00:00 34.1 5 Norte 11 Oeste 0 -- -- 31
2019-08-15 12:00:00 32 5 Noroeste 9 Oeste 0 -- -- 36
2019-08-15 11:00:00 30.1 5 Noroeste 8 Oeste 0 -- -- 42
2019-08-15 10:00:00 27.7 5 Sudeste 12 Sudeste 0 -- -- 49
2019-08-15 09:00:00 25.3 0 Calma 16 Sudeste 0 -- -- 55
2019-08-15 08:00:00 20.7 2 Noroeste 12 Este 0 -- -- 69
2019-08-15 07:00:00 20.9 0 Calma 16 Sudeste 0 -- -- 63
2019-08-15 06:00:00 21.5 10 Sudeste 17 Sudeste 0 -- -- 62
2019-08-15 05:00:00 23.2 12 Sudeste 19 Sudeste 0 -- -- 59
2019-08-15 04:00:00 24 9 Sudeste 20 Sudeste 0 -- -- 55
2019-08-15 03:00:00 24 14 Sudeste 17 Sudeste 0 -- -- 53
2019-08-15 02:00:00 24.6 14 Sudeste 17 Sudeste 0 -- -- 50
2019-08-15 01:00:00 25.7 9 Sudeste 19 Sudeste 0 -- -- 48
2019-08-15 00:00:00 27.2 15 Sudeste 22 Sudeste 0 -- -- 45
2019-08-14 23:00:00 28.5 14 Sudeste 19 Sudeste 0 -- -- 43
2019-08-14 22:00:00 29.9 7 Sudoeste 15 Sur 0 -- -- 37
2019-08-14 21:00:00 34.3 2 Sudoeste 8 Noroeste 0 -- -- 31
2019-08-14 20:00:00 35.3 5 Noroeste 13 Noroeste 0 -- -- 28
2019-08-14 19:00:00 36.4 9 Oeste 13 Oeste 0 -- -- 26
2019-08-14 18:00:00 35.7 6 Norte 13 Noroeste 0 -- -- 26
2019-08-14 17:00:00 36.4 8 Noroeste 13 Noroeste 0 -- -- 27
2019-08-14 16:00:00 35.7 11 Noroeste 13 Noroeste 0 -- -- 28
2019-08-14 15:00:00 35.2 8 Oeste 13 Sudeste 0 -- -- 28
2019-08-14 14:00:00 33.1 8 Oeste 12 Oeste 0 -- -- 33
2019-08-14 13:00:00 31.6 7 Noroeste 15 Noroeste 0 -- -- 40
2019-08-14 12:00:00 30 6 Noroeste 12 Sudeste 0 -- -- 47
2019-08-14 11:00:00 28.4 4 Sur 14 Sur 0 -- -- 53
2019-08-14 10:00:00 26.1 8 Sudeste 20 Sudeste 0 -- -- 60
2019-08-14 09:00:00 23.4 12 Sudeste 18 Sudeste 0 -- -- 71
2019-08-14 08:00:00 20.7 10 Sudeste 17 Sudeste 0 -- -- 85
2019-08-14 07:00:00 20.5 4 Este 15 Sudeste 0 -- -- 85
2019-08-14 06:00:00 21.6 9 Sudeste 16 Sudeste 0 -- -- 83
2019-08-14 05:00:00 21.8 8 Sudeste 18 Sudeste 0 -- -- 80
2019-08-14 04:00:00 22.6 12 Sudeste 24 Sudeste 0 -- -- 78
2019-08-14 03:00:00 23 14 Sudeste 22 Sur 0 -- -- 77
2019-08-14 02:00:00 23.5 14 Sudeste 22 Sudeste 0 -- -- 74
2019-08-14 01:00:00 24.2 13 Sudeste 19 Sudeste 0 -- -- 69
2019-08-14 00:00:00 25.5 12 Sur 25 Sudeste 0 -- -- 62
2019-08-13 23:00:00 26.8 15 Sudeste 23 Sudeste 0 -- -- 57
2019-08-13 22:00:00 28.4 15 Sur 22 Sur 0 -- -- 51
2019-08-13 21:00:00 30.8 14 Sur 23 Sur 0 -- -- 43
2019-08-13 20:00:00 34 9 Oeste 15 Oeste 0 -- -- 28
2019-08-13 19:00:00 34.7 11 Oeste 15 Sudoeste 0 -- -- 28
2019-08-13 18:00:00 35 5 Norte 16 Noroeste 0 -- -- 25
2019-08-13 17:00:00 35.3 5 Noroeste 14 Noroeste 0 -- -- 25
2019-08-13 16:00:00 34.1 6 Oeste 18 Oeste 0 -- -- 27
2019-08-13 15:00:00 34.1 9 Oeste 18 Oeste 0 -- -- 29
2019-08-13 14:00:00 32.9 7 Norte 15 Sur 0 -- -- 30
2019-08-13 13:00:00 31.8 7 Sur 17 Sudoeste 0 -- -- 30
2019-08-13 12:00:00 30.2 8 Sudeste 30 Sudeste 0 -- -- 35
2019-08-13 11:00:00 27.7 14 Sur 22 Sudeste 0 -- -- 43
2019-08-13 10:00:00 26.1 6 Este 16 Sudeste 0 -- -- 37
2019-08-13 09:00:00 22.5 7 Sudeste 13 Sudeste 0 -- -- 32
2019-08-13 08:00:00 18.6 9 Este 12 Este 0 -- -- 37
2019-08-13 07:00:00 17.7 9 Sudeste 16 Sudeste 0 -- -- 42
2019-08-13 06:00:00 19.6 13 Sudeste 16 Sudeste 0 -- -- 36
2019-08-13 05:00:00 19.3 12 Este 14 Este 0 -- -- 36
2019-08-13 04:00:00 19.9 10 Este 13 Sudeste 0 -- -- 33
2019-08-13 03:00:00 21.2 3 Este 11 Sur 0 -- -- 33
2019-08-13 02:00:00 22.1 7 Sur 11 Sudeste 0 -- -- 32
2019-08-13 01:00:00 20.9 5 Este 9 Este 0 -- -- 33
2019-08-13 00:00:00 22 0 Calma 17 Sudoeste 0 -- -- 26
2019-08-12 23:00:00 22.5 3 Sudeste 5 Sudeste 0 -- -- 25
2019-08-12 22:00:00 25 4 Sudoeste 6 Sudoeste 0 -- -- 22
2019-08-12 21:00:00 28.4 3 Sudoeste 11 Noroeste 0 -- -- 20
2019-08-12 20:00:00 32.2 6 Noroeste 17 Noroeste 0 -- -- 17
2019-08-12 19:00:00 33.7 8 Noroeste 18 Noroeste 0 -- -- 15
2019-08-12 18:00:00 33.3 8 Noroeste 19 Nordeste 0 -- -- 14
2019-08-12 17:00:00 32.8 6 Norte 19 Norte 0 -- -- 16
2019-08-12 16:00:00 32.1 8 Norte 20 Nordeste 0 -- -- 15
2019-08-12 15:00:00 31.7 12 Noroeste 21 Noroeste 0 -- -- 19
2019-08-12 14:00:00 30 9 Norte 26 Norte 0 -- -- 21
2019-08-12 13:00:00 28.7 12 Norte 22 Nordeste 0 -- -- 23
2019-08-12 12:00:00 26.8 13 Norte 25 Norte 0 -- -- 28
2019-08-12 11:00:00 25.6 14 Noroeste 22 Norte 0 -- -- 30
2019-08-12 10:00:00 23.4 9 Norte 19 Norte 0 -- -- 36
2019-08-12 09:00:00 19.6 4 Norte 8 Norte 0 -- -- 43
2019-08-12 08:00:00 16.7 0 Calma 5 Noroeste 0 -- -- 46
2019-08-12 07:00:00 15.1 0 Calma 5 Este 0 -- -- 52
2019-08-12 06:00:00 15 3 Sudeste 7 Sudeste 0 -- -- 44
2019-08-12 05:00:00 15 0 Calma 8 Sudeste 0 -- -- 43
2019-08-12 04:00:00 16 4 Sudeste 7 Sudeste 0 -- -- 40
2019-08-12 03:00:00 16 0 Calma 4 Sudeste 0 -- -- 39
2019-08-12 02:00:00 17.4 0 Calma 8 Sudeste 0 -- -- 37
2019-08-12 01:00:00 20.2 0 Calma 8 Oeste 0 -- -- 34
2019-08-12 00:00:00 22.7 5 Norte 15 Noroeste 0 -- -- 26
2019-08-11 23:00:00 24 6 Noroeste 12 Noroeste 0 -- -- 26
2019-08-11 22:00:00 26.7 11 Noroeste 25 Oeste 0 -- -- 22
2019-08-11 21:00:00 29.5 14 Oeste 25 Oeste 0 -- -- 24
2019-08-11 20:00:00 30.5 12 Oeste 21 Oeste 0 -- -- 22
2019-08-11 19:00:00 31.2 11 Oeste 26 Oeste 0 -- -- 23
2019-08-11 18:00:00 32.7 9 Oeste 21 Oeste 0 -- -- 22
2019-08-11 17:00:00 32.1 14 Oeste 23 Oeste 0 -- -- 22
2019-08-11 16:00:00 32.6 12 Oeste 25 Oeste 0 -- -- 19
2019-08-11 15:00:00 31 14 Oeste 23 Oeste 0 -- -- 21
2019-08-11 14:00:00 29.9 8 Noroeste 24 Oeste 0 -- -- 30
2019-08-11 13:00:00 28.1 8 Oeste 16 Sudoeste 0 -- -- 36
2019-08-11 12:00:00 26.8 6 Noroeste 15 Oeste 0 -- -- 40
2019-08-11 11:00:00 24.9 6 Oeste 14 Oeste 0 -- -- 45
2019-08-11 10:00:00 23.1 9 Oeste 13 Noroeste 0 -- -- 50
2019-08-11 09:00:00 21.3 2 Este 12 Sudeste 0 -- -- 54
2019-08-11 08:00:00 17 9 Sudeste 12 Este 0 -- -- 64
2019-08-11 07:00:00 17.1 6 Sudeste 8 Sudeste 0 -- -- 62
2019-08-11 06:00:00 17.9 2 Sudeste 6 Sudeste 0 -- -- 59
2019-08-11 05:00:00 19.6 6 Sur 9 Sudoeste 0 -- -- 54
2019-08-11 04:00:00 20.4 4 Sudoeste 15 Sudoeste 0 -- -- 52
2019-08-11 03:00:00 21.8 8 Sudoeste 14 Oeste 0 -- -- 48
2019-08-11 02:00:00 22.5 5 Sudoeste 14 Sudoeste 0 -- -- 47
2019-08-11 01:00:00 24.4 8 Oeste 24 Oeste 0 -- -- 47
2019-08-11 00:00:00 26.2 12 Oeste 25 Sudoeste 0 -- -- 48
2019-08-10 23:00:00 28 15 Sudoeste 25 Sudoeste 0 -- -- 44
2019-08-10 22:00:00 29.2 10 Sudoeste 23 Oeste 0 -- -- 39
2019-08-10 21:00:00 31.8 18 Oeste 27 Oeste 0 -- -- 37
2019-08-10 20:00:00 34.2 12 Oeste 19 Oeste 0 -- -- 34
2019-08-10 19:00:00 35.1 12 Oeste 16 Oeste 0 -- -- 33
2019-08-10 18:00:00 34.8 10 Oeste 19 Oeste 0 -- -- 35
2019-08-10 17:00:00 34.7 10 Oeste 19 Sudoeste 0 -- -- 34
2019-08-10 16:00:00 34.4 10 Oeste 17 Sudoeste 0 -- -- 38
2019-08-10 15:00:00 33.2 7 Noroeste 15 Oeste 0 -- -- 41
2019-08-10 14:00:00 32 10 Noroeste 17 Norte 0 -- -- 44
2019-08-10 13:00:00 30.4 7 Oeste 19 Oeste 0 -- -- 51
2019-08-10 12:00:00 28.5 6 Oeste 13 Sudeste 0 -- -- 57
2019-08-10 11:00:00 27.3 5 Norte 9 Noroeste 0 -- -- 63
2019-08-10 10:00:00 24.6 3 Oeste 8 Noroeste 0 -- -- 72
2019-08-10 09:00:00 23 3 Norte 8 Sudeste 0 -- -- 78
2019-08-10 08:00:00 19.7 0 Calma 8 Noroeste 0 -- -- 87
2019-08-10 07:00:00 19.8 3 Sur 4 Sur 0 -- -- 86
2019-08-10 06:00:00 20.2 0 Calma 8 Sudeste 0 -- -- 81
2019-08-10 05:00:00 20.9 3 Sudeste 5 Sudeste 0 -- -- 80
2019-08-10 04:00:00 21.7 3 Sudoeste 9 Oeste 0 -- -- 79
2019-08-10 03:00:00 22.4 4 Sudoeste 8 Sudoeste 0 -- -- 77
2019-08-10 02:00:00 23 2 Sur 12 Oeste 0 -- -- 72
2019-08-10 01:00:00 23.8 10 Oeste 15 Oeste 0 -- -- 71
2019-08-10 00:00:00 24.6 9 Oeste 22 Oeste 0 -- -- 69
2019-08-09 23:00:00 25.9 8 Sudoeste 22 Sudoeste 0 -- -- 59
2019-08-09 22:00:00 28.1 18 Oeste 25 Oeste 0 -- -- 51
2019-08-09 21:00:00 31.3 10 Sudoeste 26 Oeste 0 -- -- 36
2019-08-09 20:00:00 32.9 18 Sudoeste 24 Sudoeste 0 -- -- 34
2019-08-09 19:00:00 34.5 14 Oeste 24 Sudoeste 0 -- -- 29
2019-08-09 18:00:00 34.7 11 Oeste 20 Oeste 0 -- -- 33
2019-08-09 17:00:00 34.5 13 Oeste 20 Oeste 0 -- -- 33
2019-08-09 16:00:00 34.2 12 Oeste 21 Oeste 0 -- -- 34
2019-08-09 15:00:00 32.8 12 Sudoeste 20 Oeste 0 -- -- 39
2019-08-09 14:00:00 31.1 9 Oeste 18 Oeste 0 -- -- 42
2019-08-09 13:00:00 29.8 7 Noroeste 17 Noroeste 0 -- -- 45
2019-08-09 12:00:00 27.9 10 Noroeste 16 Noroeste 0 -- -- 45
2019-08-09 11:00:00 26.3 6 Oeste 12 Oeste 0 -- -- 46
2019-08-09 10:00:00 24.6 4 Oeste 9 Oeste 0 -- -- 45
2019-08-09 09:00:00 24.4 0 Calma 14 Sudeste 0 -- -- 45
2019-08-09 08:00:00 19.4 12 Sudeste 14 Sudeste 0 -- -- 56
2019-08-09 07:00:00 18.9 11 Sudeste 15 Sudeste 0 -- -- 57
2019-08-09 06:00:00 18.4 6 Sudeste 11 Sudeste 0 -- -- 58
2019-08-09 05:00:00 18.6 0 Calma 8 Este 0 -- -- 60
2019-08-09 04:00:00 19.5 5 Este 14 Sudeste 0 -- -- 57
2019-08-09 03:00:00 21 10 Sur 14 Sudeste 0 -- -- 56
2019-08-09 02:00:00 21.7 9 Sudoeste 22 Sudoeste 0 -- -- 55
2019-08-09 01:00:00 23.5 16 Sudoeste 26 Oeste 0 -- -- 48
2019-08-09 00:00:00 25.4 7 Sudoeste 20 Oeste 0 -- -- 44
2019-08-08 23:00:00 27.4 7 Oeste 17 Sudoeste 0 -- -- 38
2019-08-08 22:00:00 30.3 8 Sudoeste 16 Oeste 0 -- -- 28
2019-08-08 21:00:00 32.7 8 Sudoeste 20 Oeste 0 -- -- 24
2019-08-08 20:00:00 35.1 14 Oeste 18 Oeste 0 -- -- 21
2019-08-08 19:00:00 36.9 11 Oeste 20 Oeste 0 -- -- 20
2019-08-08 18:00:00 37.3 9 Oeste 13 Oeste 0 -- -- 18
2019-08-08 17:00:00 36.9 10 Oeste 13 Sudoeste 0 -- -- 24
2019-08-08 16:00:00 36.3 8 Sudoeste 12 Sudoeste 0 -- -- 25
2019-08-08 15:00:00 35.5 9 Noroeste 13 Oeste 0 -- -- 27
2019-08-08 14:00:00 33.7 6 Oeste 10 Oeste 0 -- -- 32
2019-08-08 13:00:00 31.5 7 Oeste 10 Noroeste 0 -- -- 38
2019-08-08 12:00:00 29.8 5 Noroeste 9 Oeste 0 -- -- 42
2019-08-08 11:00:00 27.6 4 Oeste 10 Oeste 0 -- -- 48
2019-08-08 10:00:00 25.4 5 Oeste 9 Oeste 0 -- -- 54
2019-08-08 09:00:00 23.8 2 Este 8 Sudeste 0 -- -- 59
2019-08-08 08:00:00 18.6 5 Este 8 Sudeste 0 -- -- 70
2019-08-08 07:00:00 18.2 3 Sudeste 8 Sudeste 0 -- -- 70
2019-08-08 06:00:00 18.5 5 Sudeste 8 Sudeste 0 -- -- 70
2019-08-08 05:00:00 19.3 5 Sudeste 9 Sudeste 0 -- -- 67
2019-08-08 04:00:00 20.3 6 Este 8 Este 0 -- -- 65
2019-08-08 03:00:00 22.4 3 Sudoeste 6 Oeste 0 -- -- 60
2019-08-08 02:00:00 23.8 0 Calma 10 Oeste 0 -- -- 54
2019-08-08 01:00:00 25 5 Oeste 18 Sudoeste 0 -- -- 55
2019-08-08 00:00:00 26.5 10 Sudoeste 20 Sudoeste 0 -- -- 47
2019-08-07 23:00:00 26.8 2 Sur 4 Sudoeste 0 -- -- 40
2019-08-07 22:00:00 28.3 2 Sur 6 Sudoeste 0 -- -- 37
2019-08-07 21:00:00 30.3 6 Oeste 8 Sudoeste 0 -- -- 34
2019-08-07 20:00:00 32.5 4 Oeste 16 Oeste 0 -- -- 32
2019-08-07 19:00:00 34.2 8 Oeste 14 Oeste 0 -- -- 27
2019-08-07 18:00:00 33.3 7 Noroeste 17 Oeste 0 -- -- 27
2019-08-07 17:00:00 32.7 7 Oeste 15 Noroeste 0 -- -- 31
2019-08-07 16:00:00 32.4 6 Oeste 18 Oeste 0 -- -- 31
2019-08-07 15:00:00 32.4 13 Oeste 19 Oeste 0 -- -- 33
2019-08-07 14:00:00 32.1 9 Noroeste 22 Noroeste 0 -- -- 34
2019-08-07 13:00:00 31.2 5 Oeste 12 Oeste 0 -- -- 36
2019-08-07 12:00:00 29 6 Oeste 10 Sudoeste 0 -- -- 40
2019-08-07 11:00:00 27 4 Oeste 10 Oeste 0 -- -- 44
2019-08-07 10:00:00 25.7 3 Oeste 8 Oeste 0 -- -- 41
2019-08-07 09:00:00 23.7 0 Calma 8 Este 0 -- -- 41
2019-08-07 08:00:00 18.2 3 Este 12 Sudeste 0 -- -- 46
2019-08-07 07:00:00 18.5 6 Sudeste 10 Sudeste 0 -- -- 44
2019-08-07 06:00:00 18.6 2 Este 9 Sudeste 0 -- -- 42
2019-08-07 05:00:00 20.2 4 Sudeste 7 Sudeste 0 -- -- 39
2019-08-07 04:00:00 22 3 Noroeste 15 Sur 0 -- -- 41
2019-08-07 03:00:00 22.8 9 Oeste 17 Oeste 0 -- -- 43
2019-08-07 02:00:00 22 5 Sudoeste 12 Oeste 0 -- -- 42
2019-08-07 01:00:00 23.1 0 Calma 10 Oeste 0 -- -- 32
2019-08-07 00:00:00 25.6 0 Calma 11 Sudoeste 0 -- -- 28
2019-08-06 23:00:00 28 6 Sudoeste 18 Sudoeste 0 -- -- 22
2019-08-06 22:00:00 30.2 9 Sudoeste 15 Sudoeste 0 -- -- 17
2019-08-06 21:00:00 32.5 13 Oeste 22 Oeste 0 -- -- 19
2019-08-06 20:00:00 35.2 14 Oeste 17 Oeste 0 -- -- 19
2019-08-06 19:00:00 36.6 12 Oeste 15 Oeste 0 -- -- 16
2019-08-06 18:00:00 37.1 9 Oeste 13 Oeste 0 -- -- 16
2019-08-06 17:00:00 37 10 Oeste 13 Oeste 0 -- -- 18
2019-08-06 16:00:00 36.6 11 Oeste 13 Sudoeste 0 -- -- 18
2019-08-06 15:00:00 35.8 8 Sudoeste 13 Sur 0 -- -- 19
2019-08-06 14:00:00 33.8 7 Oeste 13 Sudoeste 0 -- -- 23
2019-08-06 13:00:00 31.9 9 Oeste 15 Oeste 0 -- -- 27
2019-08-06 12:00:00 30.1 10 Oeste 16 Noroeste 0 -- -- 31
2019-08-06 11:00:00 28.6 4 Norte 9 Noroeste 0 -- -- 33
2019-08-06 10:00:00 25.6 4 Oeste 7 Oeste 0 -- -- 42
2019-08-06 09:00:00 23.8 3 Norte 6 Este 0 -- -- 44
2019-08-06 08:00:00 18.8 4 Este 12 Este 0 -- -- 51
2019-08-06 07:00:00 18.1 6 Sudeste 12 Sudeste 0 -- -- 52
2019-08-06 06:00:00 18.7 5 Sudeste 10 Sudeste 0 -- -- 51
2019-08-06 05:00:00 19.2 6 Sudeste 8 Sudeste 0 -- -- 50
2019-08-06 04:00:00 20.2 3 Sudeste 6 Sudeste 0 -- -- 48
2019-08-06 03:00:00 20.9 3 Sudeste 8 Oeste 0 -- -- 48
2019-08-06 02:00:00 22.8 8 Sudeste 14 Sudoeste 0 -- -- 44
2019-08-06 01:00:00 24.9 10 Sudoeste 19 Sudoeste 0 -- -- 40
2019-08-06 00:00:00 26.3 12 Sudoeste 23 Sudoeste 0 -- -- 35
2019-08-05 23:00:00 27.8 12 Sudoeste 26 Sudoeste 0 -- -- 36
2019-08-05 22:00:00 30.3 15 Sudoeste 27 Sudoeste 0 -- -- 30
2019-08-05 21:00:00 33.1 15 Oeste 24 Oeste 0 -- -- 27
2019-08-05 20:00:00 35.5 15 Sudoeste 18 Oeste 0 -- -- 24
2019-08-05 19:00:00 37 10 Oeste 12 Oeste 0 -- -- 23
2019-08-05 18:00:00 37 10 Oeste 12 Oeste 0 -- -- 24
2019-08-05 17:00:00 36.9 9 Oeste 13 Oeste 0 -- -- 25
2019-08-05 16:00:00 36.3 9 Oeste 14 Oeste 0 -- -- 26
2019-08-05 15:00:00 35.4 9 Oeste 15 Oeste 0 -- -- 24
2019-08-05 14:00:00 34.4 11 Oeste 15 Oeste 0 -- -- 28
2019-08-05 13:00:00 32.4 8 Noroeste 14 Oeste 0 -- -- 33
2019-08-05 12:00:00 30.1 8 Oeste 14 Oeste 0 -- -- 37
2019-08-05 11:00:00 28.5 8 Noroeste 14 Noroeste 0 -- -- 42
2019-08-05 10:00:00 26.6 4 Noroeste 8 Norte 0 -- -- 45
2019-08-05 09:00:00 24 2 Noroeste 4 Noroeste 0 -- -- 51
2019-08-05 08:00:00 21.7 3 Este 12 Sudeste 0 -- -- 55
2019-08-05 07:00:00 20.4 5 Este 14 Sudeste 0 -- -- 55
2019-08-05 06:00:00 20.3 12 Sudeste 14 Este 0 -- -- 56
2019-08-05 05:00:00 21.5 11 Sudeste 13 Sudeste 0 -- -- 54
2019-08-05 04:00:00 20.6 10 Sudeste 12 Sudeste 0 -- -- 58
2019-08-05 03:00:00 21.3 4 Este 8 Sudeste 0 -- -- 58
2019-08-05 02:00:00 22.8 3 Nordeste 8 Nordeste 0 -- -- 56
2019-08-05 01:00:00 24.7 4 Sudoeste 13 Sudoeste 0 -- -- 49
2019-08-05 00:00:00 26 9 Oeste 19 Oeste 0 -- -- 45
2019-08-04 23:00:00 27.9 12 Oeste 19 Oeste 0 -- -- 39
2019-08-04 22:00:00 30 6 Oeste 16 Sudoeste 0 -- -- 31
2019-08-04 21:00:00 33.2 12 Oeste 22 Oeste 0 -- -- 26
2019-08-04 20:00:00 35.2 10 Oeste 16 Oeste 0 -- -- 27
2019-08-04 19:00:00 36.5 10 Oeste 14 Oeste 0 -- -- 25
2019-08-04 18:00:00 36.5 8 Oeste 12 Oeste 0 -- -- 24
2019-08-04 17:00:00 35.9 7 Oeste 17 Oeste 0 -- -- 30
2019-08-04 16:00:00 35.3 9 Oeste 19 Oeste 0 -- -- 28
2019-08-04 15:00:00 34.1 10 Oeste 16 Oeste 0 -- -- 25
2019-08-04 14:00:00 32.4 9 Oeste 15 Oeste 0 -- -- 27
2019-08-04 13:00:00 30.2 10 Noroeste 16 Oeste 0 -- -- 33
2019-08-04 12:00:00 28.7 6 Oeste 13 Oeste 0 -- -- 37
2019-08-04 11:00:00 26.5 4 Oeste 10 Oeste 0 -- -- 42
2019-08-04 10:00:00 24.5 5 Oeste 10 Oeste 0 -- -- 45
2019-08-04 09:00:00 22.5 4 Noroeste 6 Este 0 -- -- 53
2019-08-04 08:00:00 19.3 4 Este 8 Este 0 -- -- 57
2019-08-04 07:00:00 20.1 4 Oeste 15 Sudeste 0 -- -- 59
2019-08-04 06:00:00 19.5 0 Calma 9 Sur 0 -- -- 55
2019-08-04 05:00:00 19.5 6 Sudeste 8 Sudeste 0 -- -- 56
2019-08-04 04:00:00 22.1 4 Sur 12 Sur 0 -- -- 50
2019-08-04 03:00:00 22.4 6 Sur 10 Sudoeste 0 -- -- 51
2019-08-04 02:00:00 23 4 Sudoeste 10 Sudoeste 0 -- -- 47
2019-08-04 01:00:00 24.1 0 Calma 9 Sudoeste 0 -- -- 38
2019-08-04 00:00:00 26.2 5 Sudoeste 19 Sudoeste 0 -- -- 34
2019-08-03 23:00:00 27.7 10 Sudoeste 20 Sudoeste 0 -- -- 34
2019-08-03 22:00:00 28.9 13 Sudoeste 27 Oeste 0 -- -- 34
2019-08-03 21:00:00 31.5 18 Oeste 29 Oeste 0 -- -- 32
2019-08-03 20:00:00 33.6 17 Oeste 22 Oeste 0 -- -- 32
2019-08-03 19:00:00 35.1 15 Oeste 18 Oeste 0 -- -- 29
2019-08-03 18:00:00 36.3 12 Oeste 15 Oeste 0 -- -- 24
2019-08-03 17:00:00 36.2 10 Oeste 19 Oeste 0 -- -- 26
2019-08-03 16:00:00 35.8 13 Oeste 19 Oeste 0 -- -- 28
2019-08-03 15:00:00 35 13 Oeste 19 Oeste 0 -- -- 32
2019-08-03 14:00:00 33.8 7 Oeste 14 Oeste 0 -- -- 32
2019-08-03 13:00:00 32.1 8 Noroeste 13 Noroeste 0 -- -- 33
2019-08-03 12:00:00 30.6 6 Noroeste 13 Noroeste 0 -- -- 35
2019-08-03 11:00:00 28.8 4 Oeste 9 Oeste 0 -- -- 37
2019-08-03 10:00:00 27.3 4 Sudeste 9 Sudeste 0 -- -- 36
2019-08-03 09:00:00 24.4 2 Nordeste 6 Este 0 -- -- 54
2019-08-03 08:00:00 19 2 Sudeste 5 Sudeste 0 -- -- 65
2019-08-03 07:00:00 19 7 Sudeste 13 Sudeste 0 -- -- 65
2019-08-03 06:00:00 20.6 4 Sudoeste 17 Sudeste 0 -- -- 63
2019-08-03 05:00:00 22.2 13 Sudeste 18 Sudeste 0 -- -- 58
2019-08-03 04:00:00 23.1 14 Sudeste 19 Sudeste 0 -- -- 49
2019-08-03 03:00:00 22.8 11 Sudeste 15 Sudeste 0 -- -- 33
2019-08-03 02:00:00 22 2 Sudeste 13 Este 0 -- -- 33
2019-08-03 01:00:00 23.8 8 Sudeste 12 Sudeste 0 -- -- 30
2019-08-03 00:00:00 25.6 2 Sur 17 Sudoeste 0 -- -- 30
2019-08-02 23:00:00 27.8 11 Sudoeste 27 Sudoeste 0 -- -- 27
2019-08-02 22:00:00 30.2 15 Sudoeste 24 Oeste 0 -- -- 25
2019-08-02 21:00:00 33.4 14 Oeste 21 Oeste 0 -- -- 24
2019-08-02 20:00:00 36 10 Oeste 14 Oeste 0 -- -- 20
2019-08-02 19:00:00 37 9 Oeste 11 Oeste 0 -- -- 18
2019-08-02 18:00:00 37.1 9 Oeste 11 Oeste 0 -- -- 20
2019-08-02 17:00:00 37.1 9 Oeste 12 Noroeste 0 -- -- 20
2019-08-02 16:00:00 36.3 10 Oeste 14 Sudoeste 0 -- -- 22
2019-08-02 15:00:00 35.6 8 Oeste 14 Noroeste 0 -- -- 23
2019-08-02 14:00:00 34.3 6 Oeste 15 Oeste 0 -- -- 25
2019-08-02 13:00:00 32.6 5 Norte 17 Noroeste 0 -- -- 27
2019-08-02 12:00:00 30.7 7 Oeste 14 Oeste 0 -- -- 32
2019-08-02 11:00:00 28.5 4 Oeste 8 Noroeste 0 -- -- 36
2019-08-02 10:00:00 25.9 5 Oeste 7 Noroeste 0 -- -- 41
2019-08-02 09:00:00 24.2 2 Este 7 Sudeste 0 -- -- 48
2019-08-02 08:00:00 18.2 5 Este 8 Sudeste 0 -- -- 60
2019-08-02 07:00:00 18.1 3 Sudeste 10 Sudeste 0 -- -- 59
2019-08-02 06:00:00 19 2 Sudeste 12 Sudeste 0 -- -- 57
2019-08-02 05:00:00 19.1 3 Sudoeste 6 Sur 0 -- -- 58
2019-08-02 04:00:00 19.7 0 Calma 7 Sudeste 0 -- -- 57
2019-08-02 03:00:00 21.3 6 Sudeste 10 Sudeste 0 -- -- 53
2019-08-02 02:00:00 23 4 Este 17 Oeste 0 -- -- 52
2019-08-02 01:00:00 24.7 14 Oeste 22 Oeste 0 -- -- 49
2019-08-02 00:00:00 26.5 13 Sudoeste 21 Oeste 0 -- -- 50
2019-08-01 23:00:00 28.2 15 Oeste 24 Sudoeste 0 -- -- 49
2019-08-01 22:00:00 29.8 7 Sudoeste 18 Sudoeste 0 -- -- 37
2019-08-01 21:00:00 32.8 11 Sudoeste 17 Oeste 0 -- -- 33
2019-08-01 20:00:00 34.6 10 Oeste 16 Oeste 0 -- -- 32
2019-08-01 19:00:00 34.9 12 Oeste 16 Oeste 0 -- -- 33
2019-08-01 18:00:00 35.1 8 Sudoeste 18 Oeste 0 -- -- 35
2019-08-01 17:00:00 34.4 9 Oeste 18 Oeste 0 -- -- 37
2019-08-01 16:00:00 33.5 10 Oeste 19 Sudoeste 0 -- -- 39
2019-08-01 15:00:00 32.5 8 Noroeste 18 Oeste 0 -- -- 42
2019-08-01 14:00:00 31.7 7 Oeste 19 Oeste 0 -- -- 44
2019-08-01 13:00:00 30.2 8 Oeste 18 Sudoeste 0 -- -- 49
2019-08-01 12:00:00 29.3 6 Oeste 15 Oeste 0 -- -- 50
2019-08-01 11:00:00 28.3 6 Sudeste 17 Sudeste 0 -- -- 56
2019-08-01 10:00:00 25.5 11 Sur 21 Sudeste 0 -- -- 64
2019-08-01 09:00:00 23.7 15 Sudeste 23 Sudeste 0 -- -- 69
2019-08-01 08:00:00 20.8 7 Sudeste 9 Sudeste 0 -- -- 79
2019-08-01 07:00:00 20.5 8 Este 12 Este 0 -- -- 79
2019-08-01 06:00:00 21.2 6 Este 13 Sur 0 -- -- 77
2019-08-01 05:00:00 22.1 9 Sudeste 12 Sur 0 -- -- 74
2019-08-01 04:00:00 22.4 8 Sur 17 Sur 0 -- -- 72
2019-08-01 03:00:00 23 11 Sur 20 Sudeste 0 -- -- 70
2019-08-01 02:00:00 23.2 13 Sudeste 24 Sudeste 0 -- -- 71
2019-08-01 01:00:00 23.5 15 Sudeste 29 Sudeste 0 -- -- 70
2019-08-01 00:00:00 23.9 21 Sudeste 34 Sur 0 -- -- 69
2019-07-31 23:00:00 24.9 23 Sur 44 Sudeste 0 -- -- 64
2019-07-31 22:00:00 26 27 Sudeste 42 Sudeste 0 -- -- 59
2019-07-31 21:00:00 28.4 24 Sudeste 38 Sudeste 0 -- -- 52
2019-07-31 20:00:00 31.1 23 Sudeste 32 Sudeste 0 -- -- 43
2019-07-31 19:00:00 33 19 Sur 25 Sur 0 -- -- 36
2019-07-31 18:00:00 34.5 13 Sur 22 Sur 0 -- -- 33
2019-07-31 17:00:00 34.3 16 Sur 23 Sudoeste 0 -- -- 33
2019-07-31 16:00:00 34.7 14 Sudoeste 19 Sur 0 -- -- 33
2019-07-31 15:00:00 34.2 6 Oeste 18 Sur 0 -- -- 33
2019-07-31 14:00:00 33.3 8 Sur 19 Sur 0 -- -- 34
2019-07-31 13:00:00 32.3 4 Sur 19 Sudeste 0 -- -- 34
2019-07-31 12:00:00 30.6 10 Sur 21 Sudeste 0 -- -- 39
2019-07-31 11:00:00 28.4 13 Sur 21 Sudeste 0 -- -- 46
2019-07-31 10:00:00 26.2 14 Sudeste 22 Sur 0 -- -- 51
2019-07-31 09:00:00 23.3 11 Sudeste 22 Sudeste 0 -- -- 56
2019-07-31 08:00:00 21.7 14 Sudeste 24 Sudeste 0 -- -- 62
2019-07-31 07:00:00 20.6 10 Sudeste 16 Sudeste 0 -- -- 62
2019-07-31 06:00:00 20.5 10 Este 15 Sudeste 0 -- -- 57
2019-07-31 05:00:00 21.9 6 Este 18 Sudeste 0 -- -- 53
2019-07-31 04:00:00 22.6 13 Sudeste 19 Sudeste 0 -- -- 47
2019-07-31 03:00:00 23.5 13 Sudeste 17 Sudeste 0 -- -- 42
2019-07-31 02:00:00 25.4 12 Sur 20 Sudeste 0 -- -- 36
2019-07-31 01:00:00 25.3 12 Sudeste 17 Sudeste 0 -- -- 33
2019-07-31 00:00:00 23.8 3 Sur 9 Sudeste 0 -- -- 31
2019-07-30 23:00:00 25.4 5 Sudeste 6 Sudeste 0 -- -- 29
2019-07-30 22:00:00 29 2 Sur 8 Oeste 0 -- -- 27
2019-07-30 21:00:00 33 9 Oeste 16 Oeste 0 -- -- 24
2019-07-30 20:00:00 35.1 11 Oeste 15 Oeste 0 -- -- 21
2019-07-30 19:00:00 36.5 9 Oeste 14 Oeste 0 -- -- 18
2019-07-30 18:00:00 36.1 6 Oeste 14 Noroeste 0 -- -- 20
2019-07-30 17:00:00 36 11 Oeste 13 Oeste 0 -- -- 21
2019-07-30 16:00:00 35.4 9 Oeste 15 Noroeste 0 -- -- 21
2019-07-30 15:00:00 34.4 6 Noroeste 18 Noroeste 0 -- -- 24
2019-07-30 14:00:00 32.8 8 Noroeste 19 Noroeste 0 -- -- 25
2019-07-30 13:00:00 30.7 8 Norte 18 Noroeste 0 -- -- 27
2019-07-30 12:00:00 29.6 9 Norte 16 Norte 0 -- -- 29
2019-07-30 11:00:00 27.4 8 Norte 15 Norte 0 -- -- 32
2019-07-30 10:00:00 25 9 Norte 17 Nordeste 0 -- -- 37
2019-07-30 09:00:00 22.3 2 Noroeste 6 Sudeste 0 -- -- 51
2019-07-30 08:00:00 17.8 2 Sudeste 12 Sudeste 0 -- -- 66
2019-07-30 07:00:00 16.9 6 Sudeste 9 Sudeste 0 -- -- 67
2019-07-30 06:00:00 17.2 0 Calma 6 Sur 0 -- -- 65
2019-07-30 05:00:00 18 0 Calma 6 Sudeste 0 -- -- 66
2019-07-30 04:00:00 19.6 6 Sudeste 10 Sudeste 0 -- -- 65
2019-07-30 03:00:00 20.5 2 Sur 6 Sudeste 0 -- -- 61
2019-07-30 02:00:00 22.4 3 Sur 6 Sudoeste 0 -- -- 58
2019-07-30 01:00:00 23.7 2 Sudeste 13 Oeste 0 -- -- 56
2019-07-30 00:00:00 25.3 9 Oeste 17 Oeste 0 -- -- 52
2019-07-29 23:00:00 27.1 10 Sudoeste 21 Sudoeste 0 -- -- 43
2019-07-29 22:00:00 29 13 Sudoeste 22 Sudoeste 0 -- -- 33
2019-07-29 21:00:00 32.1 11 Oeste 19 Sudoeste 0 -- -- 27
2019-07-29 20:00:00 33.9 10 Oeste 18 Oeste 0 -- -- 24
2019-07-29 19:00:00 34.7 12 Oeste 16 Oeste 0 -- -- 24
2019-07-29 18:00:00 34.6 10 Oeste 18 Sudoeste 0 -- -- 23
2019-07-29 17:00:00 34.1 14 Oeste 21 Oeste 0 -- -- 27
2019-07-29 16:00:00 33 13 Noroeste 22 Oeste 0 -- -- 30
2019-07-29 15:00:00 32 11 Oeste 22 Noroeste 0 -- -- 34
2019-07-29 14:00:00 30.4 8 Oeste 16 Oeste 0 -- -- 39
2019-07-29 13:00:00 27.7 6 Noroeste 14 Noroeste 0 -- -- 46
2019-07-29 12:00:00 25.9 8 Noroeste 15 Oeste 0 -- -- 55
2019-07-29 11:00:00 24.3 8 Sudoeste 15 Oeste 0 -- -- 59
2019-07-29 10:00:00 22.6 7 Noroeste 14 Oeste 0 -- -- 66
2019-07-29 09:00:00 21.2 6 Oeste 10 Oeste 0 -- -- 70
2019-07-29 08:00:00 17.7 3 Este 6 Sudeste 0 -- -- 81
2019-07-29 07:00:00 16.7 3 Este 9 Sudeste 0 -- -- 82
2019-07-29 06:00:00 17.3 3 Este 5 Este 0 -- -- 81
2019-07-29 05:00:00 17.9 3 Este 9 Sudeste 0 -- -- 79
2019-07-29 04:00:00 18.8 3 Sudeste 7 Sudeste 0 -- -- 76
2019-07-29 03:00:00 19.5 3 Sudoeste 11 Sudoeste 0 -- -- 76
2019-07-29 02:00:00 20.5 5 Sudoeste 18 Oeste 0 -- -- 73
2019-07-29 01:00:00 21.7 13 Oeste 22 Oeste 0 -- -- 69
2019-07-29 00:00:00 23 19 Oeste 28 Sudoeste 0 -- -- 64
2019-07-28 23:00:00 24.9 16 Oeste 29 Sudoeste 0 -- -- 59
2019-07-28 22:00:00 26.8 9 Sudoeste 15 Sudoeste 0 -- -- 41
2019-07-28 21:00:00 30.1 11 Oeste 21 Oeste 0 -- -- 33
2019-07-28 20:00:00 31.2 12 Oeste 27 Oeste 0 -- -- 34
2019-07-28 19:00:00 32 14 Oeste 26 Oeste 0 -- -- 34
2019-07-28 18:00:00 31.5 17 Oeste 26 Oeste 0 -- -- 36
2019-07-28 17:00:00 31.3 17 Oeste 28 Oeste 0 -- -- 39
2019-07-28 16:00:00 30.6 9 Oeste 24 Oeste 0 -- -- 43
2019-07-28 15:00:00 30.3 9 Noroeste 20 Noroeste 0 -- -- 45
2019-07-28 14:00:00 29.1 11 Noroeste 21 Oeste 0 -- -- 48
2019-07-28 13:00:00 27.4 6 Norte 17 Noroeste 0 -- -- 54
2019-07-28 12:00:00 25.5 5 Noroeste 15 Noroeste 0 -- -- 61
2019-07-28 11:00:00 23.6 5 Oeste 12 Noroeste 0 -- -- 67
2019-07-28 10:00:00 21.4 2 Norte 9 Oeste 0 -- -- 76
2019-07-28 09:00:00 19.9 4 Noroeste 9 Oeste 0 -- -- 83
2019-07-28 08:00:00 19.2 4 Sudoeste 14 Oeste 0 -- -- 84
2019-07-28 07:00:00 19.2 9 Oeste 14 Noroeste 0 -- -- 84
2019-07-28 06:00:00 19.2 6 Oeste 15 Oeste 0 -- -- 84
2019-07-28 05:00:00 19.2 8 Oeste 12 Sudoeste 0 -- -- 85
2019-07-28 04:00:00 19.4 7 Sudoeste 15 Oeste 0 -- -- 83
2019-07-28 03:00:00 20.1 10 Oeste 16 Sudoeste 0 -- -- 81
2019-07-28 02:00:00 20.4 9 Oeste 18 Oeste 0 -- -- 81
2019-07-28 01:00:00 20.6 11 Oeste 21 Oeste 0 -- -- 82
2019-07-28 00:00:00 20.9 12 Sudoeste 30 Oeste 0 -- -- 79
2019-07-27 23:00:00 21.7 15 Sudoeste 33 Sudoeste 0 -- -- 76
2019-07-26 12:00:00 -- -- -- -- -- -- -- -- --
2019-07-26 11:00:00 -- -- -- -- -- -- -- -- --
2019-07-26 10:00:00 -- -- -- -- -- -- -- -- --
2019-07-26 09:00:00 21.7 10 Oeste 15 Sudoeste 0 -- -- 72
2019-07-26 08:00:00 19.8 0 Calma 8 Sudeste 0 -- -- 70
2019-07-26 07:00:00 19.1 7 Sudeste 10 Sudeste 0 -- -- 71
2019-07-26 06:00:00 19.5 4 Sudeste 10 Sudoeste 0 -- -- 70
2019-07-26 05:00:00 20.2 5 Oeste 9 Sudoeste 0 -- -- 70
2019-07-26 04:00:00 21 8 Oeste 14 Sudoeste 0 -- -- 69
2019-07-26 03:00:00 21.1 2 Nordeste 7 Oeste 0 -- -- 76
2019-07-26 02:00:00 22.2 5 Sudoeste 8 Oeste 0 -- -- 72
2019-07-26 01:00:00 23.5 6 Sudoeste 17 Oeste 0 -- -- 66
2019-07-26 00:00:00 25.4 6 Oeste 22 Sudoeste 0 -- -- 51
2019-07-25 23:00:00 27.7 12 Sudoeste 35 Sudoeste 0 -- -- 39
2019-07-25 22:00:00 28.6 21 Oeste 36 Oeste 0 -- -- 43
2019-07-25 21:00:00 30.2 24 Oeste 40 Oeste 0 -- -- 47
2019-07-25 20:00:00 32.3 25 Oeste 40 Oeste 0 -- -- 46
2019-07-25 19:00:00 35.3 17 Oeste 30 Oeste 0 -- -- 34
2019-07-25 18:00:00 36.8 11 Oeste 19 Oeste 0 -- -- 28
2019-07-25 17:00:00 37.5 9 Sudoeste 14 Oeste 0 -- -- 26
2019-07-25 16:00:00 37.4 8 Oeste 13 Oeste 0 -- -- 25
2019-07-25 15:00:00 36.9 8 Sudoeste 21 Sur 0 -- -- 24
2019-07-25 14:00:00 34.4 6 Noroeste 18 Sudoeste 0 -- -- 32
2019-07-25 13:00:00 32.8 6 Noroeste 12 Noroeste 0 -- -- 36
2019-07-25 12:00:00 31.1 5 Oeste 12 Oeste 0 -- -- 41
2019-07-25 11:00:00 29.4 5 Noroeste 9 Noroeste 0 -- -- 47
2019-07-25 10:00:00 27.6 4 Oeste 9 Noroeste 0 -- -- 55
2019-07-25 09:00:00 25.5 6 Sudeste 9 Sudeste 0 -- -- 64
2019-07-25 08:00:00 21.7 3 Sudeste 13 Sudeste 0 -- -- 75
2019-07-25 07:00:00 20.4 6 Este 12 Sudeste 0 -- -- 76
2019-07-25 06:00:00 21.4 6 Sudeste 10 Sudeste 0 -- -- 74
2019-07-25 05:00:00 21.9 6 Sudeste 8 Sudeste 0 -- -- 72
2019-07-25 04:00:00 23 4 Sur 10 Sudoeste 0 -- -- 70
2019-07-25 03:00:00 24.1 7 Sudoeste 12 Sudoeste 0 -- -- 67
2019-07-25 02:00:00 25 7 Sudoeste 14 Sudoeste 0 -- -- 65
2019-07-25 01:00:00 26.2 8 Oeste 15 Sudoeste 0 -- -- 59
2019-07-25 00:00:00 28.9 10 Sudoeste 19 Sudoeste 0 -- -- 35
2019-07-24 23:00:00 30.1 12 Sudoeste 25 Sur 0 -- -- 32
2019-07-24 22:00:00 31.9 15 Sur 26 Sur 0 -- -- 29
2019-07-24 21:00:00 34.5 12 Sur 20 Sur 0 -- -- 24
2019-07-24 20:00:00 36.6 11 Sur 12 Sur 0 -- -- 22
2019-07-24 19:00:00 37.9 8 Sur 9 Sudoeste 0 -- -- 21
2019-07-24 18:00:00 38.5 7 Sur 9 Sudoeste 0 -- -- 21
2019-07-24 17:00:00 38.3 6 Sudoeste 17 Sudoeste 0 -- -- 22
2019-07-24 16:00:00 38.2 7 Sudoeste 12 Sudoeste 0 -- -- 23
2019-07-24 15:00:00 37 8 Sudoeste 13 Sudoeste 0 -- -- 26
2019-07-24 14:00:00 35.9 9 Sur 15 Sudoeste 0 -- -- 28
2019-07-24 13:00:00 34.1 5 Sudoeste 12 Sur 0 -- -- 32
2019-07-24 12:00:00 31.7 5 Sudoeste 10 Sudoeste 0 -- -- 42
2019-07-24 11:00:00 30.1 4 Sudoeste 10 Sur 0 -- -- 50
2019-07-24 10:00:00 28.1 4 Noroeste 6 Oeste 0 -- -- 56
2019-07-24 09:00:00 26.4 0 Calma 8 Este 0 -- -- 65
2019-07-24 08:00:00 21.8 5 Este 8 Este 0 -- -- 76
2019-07-24 07:00:00 21.4 6 Este 9 Sudeste 0 -- -- 78
2019-07-24 06:00:00 22.7 4 Sudeste 12 Este 0 -- -- 76
2019-07-24 05:00:00 22.7 7 Sudeste 12 Sudeste 0 -- -- 75
2019-07-24 04:00:00 23.6 5 Sur 9 Sur 0 -- -- 72
2019-07-24 03:00:00 24.2 2 Sudeste 9 Sudoeste 0 -- -- 71
2019-07-24 02:00:00 25.5 4 Sudoeste 14 Oeste 0 -- -- 67
2019-07-24 01:00:00 26.4 8 Oeste 15 Oeste 0 -- -- 65
2019-07-24 00:00:00 28.1 8 Sudoeste 16 Oeste 0 -- -- 56